createdAt,value
2016-12-15T00:00:38.376Z,0
2016-12-15T00:01:38.393Z,0
2016-12-15T00:02:38.091Z,0
2016-12-15T00:03:38.113Z,0
2016-12-15T00:04:37.810Z,0
2016-12-15T00:05:38.450Z,0
2016-12-15T00:06:37.841Z,0
2016-12-15T00:07:38.501Z,0
2016-12-15T00:08:37.870Z,0
2016-12-15T00:09:38.199Z,0
2016-12-15T00:10:38.237Z,0
2016-12-15T00:11:38.248Z,0
2016-12-15T00:12:37.942Z,0
2016-12-15T00:13:38.591Z,0
2016-12-15T00:14:38.599Z,0
2016-12-15T00:15:38.663Z,0
2016-12-15T00:16:38.630Z,0
2016-12-15T00:17:38.328Z,0
2016-12-15T00:18:38.670Z,0
2016-12-15T00:19:38.677Z,0
2016-12-15T00:20:38.380Z,0
2016-12-15T00:21:38.398Z,0
2016-12-15T00:22:38.414Z,0
2016-12-15T00:23:38.743Z,0
2016-12-15T00:24:38.756Z,0
2016-12-15T00:25:38.154Z,0
2016-12-15T00:26:38.788Z,0
2016-12-15T00:27:38.183Z,0
2016-12-15T00:28:38.191Z,0
2016-12-15T00:29:38.207Z,0
2016-12-15T00:30:38.228Z,0
2016-12-15T00:31:38.235Z,0
2016-12-15T00:32:38.586Z,0
2016-12-15T00:33:38.284Z,0
2016-12-15T00:34:38.916Z,0
2016-12-15T00:35:38.617Z,0
2016-12-15T00:36:38.958Z,0
2016-12-15T00:37:38.963Z,0
2016-12-15T00:38:38.712Z,0
2016-12-15T00:39:38.993Z,0
2016-12-15T00:40:38.696Z,0
2016-12-15T00:41:39.026Z,0
2016-12-15T00:42:38.766Z,0
2016-12-15T00:43:38.745Z,0
2016-12-15T00:44:38.443Z,0
2016-12-15T00:45:38.473Z,0
2016-12-15T00:46:39.122Z,0
2016-12-15T00:47:39.143Z,0
2016-12-15T00:48:38.512Z,0
2016-12-15T00:49:39.154Z,0
2016-12-15T00:50:39.191Z,0
2016-12-15T00:51:39.197Z,0
2016-12-15T00:52:38.881Z,0
2016-12-15T00:53:39.217Z,0
2016-12-15T00:54:39.594Z,0
2016-12-15T00:55:39.261Z,0
2016-12-15T00:56:38.959Z,0
2016-12-15T00:57:39.278Z,0
2016-12-15T00:58:38.658Z,0
2016-12-15T00:59:38.992Z,0
2016-12-15T01:00:38.690Z,0
2016-12-15T01:01:39.662Z,0
2016-12-15T01:02:39.040Z,0
2016-12-15T01:03:39.060Z,0
2016-12-15T01:04:39.386Z,0
2016-12-15T01:05:39.090Z,0
2016-12-15T01:06:39.421Z,0
2016-12-15T01:07:39.128Z,0
2016-12-15T01:08:39.137Z,0
2016-12-15T01:09:39.879Z,0
2016-12-15T01:10:39.558Z,0
2016-12-15T01:11:39.882Z,0
2016-12-15T01:12:39.540Z,0
2016-12-15T01:13:39.548Z,0
2016-12-15T01:14:39.550Z,0
2016-12-15T01:15:38.924Z,0
2016-12-15T01:16:39.572Z,0
2016-12-15T01:17:39.274Z,0
2016-12-15T01:18:39.608Z,0
2016-12-15T01:19:39.617Z,0
2016-12-15T01:20:39.334Z,0
2016-12-15T01:21:39.332Z,0
2016-12-15T01:22:39.036Z,0
2016-12-15T01:23:39.057Z,0
2016-12-15T01:24:39.383Z,0
2016-12-15T01:25:39.737Z,0
2016-12-15T01:26:39.741Z,0
2016-12-15T01:27:39.425Z,0
2016-12-15T01:28:40.076Z,0
2016-12-15T01:29:39.772Z,0
2016-12-15T01:30:40.104Z,0
2016-12-15T01:31:39.840Z,0
2016-12-15T01:32:39.507Z,0
2016-12-15T01:33:39.838Z,0
2016-12-15T01:34:39.853Z,0
2016-12-15T01:35:39.865Z,0
2016-12-15T01:36:39.566Z,0
2016-12-15T01:37:39.579Z,0
2016-12-15T01:38:39.596Z,0
2016-12-15T01:39:39.612Z,0
2016-12-15T01:40:39.940Z,0
2016-12-15T01:41:39.330Z,0
2016-12-15T01:42:39.338Z,0
2016-12-15T01:43:40.303Z,0
2016-12-15T01:44:40.004Z,0
2016-12-15T01:45:39.385Z,0
2016-12-15T01:46:40.036Z,0
2016-12-15T01:47:39.733Z,0
2016-12-15T01:48:40.063Z,0
2016-12-15T01:49:39.444Z,0
2016-12-15T01:50:40.091Z,0
2016-12-15T01:51:40.108Z,0
2016-12-15T01:52:40.123Z,0
2016-12-15T01:53:39.822Z,0
2016-12-15T01:54:40.155Z,0
2016-12-15T01:55:40.164Z,0
2016-12-15T01:56:39.868Z,0
2016-12-15T01:57:40.514Z,0
2016-12-15T01:58:39.916Z,0
2016-12-15T01:59:40.232Z,0
2016-12-15T02:00:39.926Z,0
2016-12-15T02:01:40.255Z,0
2016-12-15T02:02:40.276Z,0
2016-12-15T02:03:39.653Z,0
2016-12-15T02:04:39.987Z,0
2016-12-15T02:05:39.689Z,0
2016-12-15T02:06:40.328Z,0
2016-12-15T02:07:39.732Z,0
2016-12-15T02:08:40.362Z,0
2016-12-15T02:09:39.752Z,0
2016-12-15T02:10:40.073Z,0
2016-12-15T02:11:40.410Z,0
2016-12-15T02:12:40.107Z,0
2016-12-15T02:13:40.121Z,0
2016-12-15T02:14:40.138Z,0
2016-12-15T02:15:40.479Z,0
2016-12-15T02:16:40.811Z,0
2016-12-15T02:17:40.178Z,0
2016-12-15T02:18:40.214Z,0
2016-12-15T02:19:40.526Z,0
2016-12-15T02:20:40.239Z,0
2016-12-15T02:21:40.556Z,0
2016-12-15T02:22:40.614Z,0
2016-12-15T02:23:40.269Z,0
2016-12-15T02:24:40.597Z,0
2016-12-15T02:25:40.296Z,0
2016-12-15T02:26:40.626Z,0
2016-12-15T02:27:40.011Z,0
2016-12-15T02:28:40.659Z,0
2016-12-15T02:29:40.363Z,0
2016-12-15T02:30:40.379Z,0
2016-12-15T02:31:40.701Z,0
2016-12-15T02:32:40.083Z,0
2016-12-15T02:33:41.042Z,0
2016-12-15T02:34:40.749Z,0
2016-12-15T02:35:40.131Z,0
2016-12-15T02:36:40.144Z,0
2016-12-15T02:37:40.489Z,0
2016-12-15T02:38:40.487Z,0
2016-12-15T02:39:41.134Z,0
2016-12-15T02:40:40.835Z,0
2016-12-15T02:41:40.536Z,0
2016-12-15T02:42:40.865Z,0
2016-12-15T02:43:40.565Z,0
2016-12-15T02:44:40.894Z,0
2016-12-15T02:45:40.593Z,0
2016-12-15T02:46:40.921Z,0
2016-12-15T02:47:40.935Z,0
2016-12-15T02:48:40.636Z,0
2016-12-15T02:49:40.713Z,0
2016-12-15T02:50:40.999Z,0
2016-12-15T02:51:41.315Z,0
2016-12-15T02:52:40.693Z,0
2016-12-15T02:53:55.596Z,0
2016-12-15T02:54:41.036Z,0
2016-12-15T02:55:40.756Z,0
2016-12-15T02:56:41.071Z,0
2016-12-15T02:57:40.764Z,0
2016-12-15T02:58:41.413Z,0
2016-12-15T02:59:40.790Z,0
2016-12-15T03:00:41.128Z,0
2016-12-15T03:01:40.514Z,0
2016-12-15T03:02:40.840Z,0
2016-12-15T03:03:41.479Z,0
2016-12-15T03:04:40.864Z,0
2016-12-15T03:05:40.574Z,0
2016-12-15T03:06:40.913Z,0
2016-12-15T03:07:41.543Z,0
2016-12-15T03:08:41.241Z,0
2016-12-15T03:09:41.607Z,0
2016-12-15T03:10:40.956Z,0
2016-12-15T03:11:41.283Z,0
2016-12-15T03:12:41.303Z,0
2016-12-15T03:13:40.996Z,0
2016-12-15T03:14:40.695Z,0
2016-12-15T03:15:41.345Z,0
2016-12-15T03:16:41.045Z,0
2016-12-15T03:17:41.373Z,0
2016-12-15T03:18:41.703Z,0
2016-12-15T03:19:41.087Z,0
2016-12-15T03:20:41.431Z,0
2016-12-15T03:21:41.433Z,0
2016-12-15T03:22:41.442Z,0
2016-12-15T03:23:40.834Z,0
2016-12-15T03:24:40.842Z,0
2016-12-15T03:25:41.511Z,0
2016-12-15T03:26:41.502Z,0
2016-12-15T03:27:41.519Z,0
2016-12-15T03:28:41.214Z,0
2016-12-15T03:29:41.546Z,0
2016-12-15T03:30:41.606Z,0
2016-12-15T03:31:41.255Z,0
2016-12-15T03:32:41.906Z,0
2016-12-15T03:33:41.603Z,0
2016-12-15T03:34:40.988Z,0
2016-12-15T03:35:41.517Z,0
2016-12-15T03:36:41.958Z,0
2016-12-15T03:37:41.653Z,0
2016-12-15T03:38:41.669Z,0
2016-12-15T03:39:41.420Z,0
2016-12-15T03:40:41.703Z,0
2016-12-15T03:41:42.029Z,0
2016-12-15T03:42:41.411Z,0
2016-12-15T03:43:41.431Z,0
2016-12-15T03:44:41.446Z,0
2016-12-15T03:45:41.453Z,0
2016-12-15T03:46:41.786Z,0
2016-12-15T03:47:41.800Z,0
2016-12-15T03:48:41.179Z,0
2016-12-15T03:49:41.512Z,0
2016-12-15T03:50:41.852Z,0
2016-12-15T03:51:41.859Z,0
2016-12-15T03:52:41.574Z,0
2016-12-15T03:53:41.253Z,0
2016-12-15T03:54:41.266Z,0
2016-12-15T03:55:41.281Z,0
2016-12-15T03:57:41.623Z,0
2016-12-15T03:58:42.266Z,0
2016-12-15T03:59:41.972Z,0
2016-12-15T04:00:41.670Z,0
2016-12-15T04:01:41.368Z,0
2016-12-15T04:02:42.008Z,0
2016-12-15T04:03:41.738Z,0
2016-12-15T04:04:41.726Z,0
2016-12-15T04:05:41.737Z,0
2016-12-15T04:06:42.069Z,0
2016-12-15T04:07:41.763Z,0
2016-12-15T04:08:41.469Z,0
2016-12-15T04:09:42.425Z,0
2016-12-15T04:10:41.809Z,0
2016-12-15T04:11:42.148Z,0
2016-12-15T04:12:42.155Z,0
2016-12-15T04:13:41.851Z,0
2016-12-15T04:14:41.545Z,0
2016-12-15T04:15:42.194Z,0
2016-12-15T04:16:41.892Z,0
2016-12-15T04:17:42.235Z,0
2016-12-15T04:18:42.441Z,0
2016-12-15T04:19:41.931Z,0
2016-12-15T04:20:42.282Z,0
2016-12-15T04:21:42.272Z,0
2016-12-15T04:22:42.311Z,0
2016-12-15T04:23:41.674Z,0
2016-12-15T04:24:42.637Z,0
2016-12-15T04:25:42.017Z,0
2016-12-15T04:26:42.029Z,0
2016-12-15T04:27:42.359Z,0
2016-12-15T04:28:42.381Z,0
2016-12-15T04:29:42.705Z,0
2016-12-15T04:30:42.088Z,0
2016-12-15T04:31:42.416Z,0
2016-12-15T04:32:42.118Z,0
2016-12-15T04:33:41.824Z,0
2016-12-15T04:34:41.827Z,0
2016-12-15T04:35:42.158Z,0
2016-12-15T04:36:42.178Z,0
2016-12-15T04:37:42.809Z,0
2016-12-15T04:38:42.514Z,0
2016-12-15T04:39:42.208Z,0
2016-12-15T04:40:42.546Z,0
2016-12-15T04:41:42.557Z,0
2016-12-15T04:42:42.570Z,0
2016-12-15T04:43:42.586Z,0
2016-12-15T04:44:42.644Z,0
2016-12-15T04:45:42.922Z,0
2016-12-15T04:46:41.990Z,0
2016-12-15T04:47:42.671Z,0
2016-12-15T04:48:42.967Z,0
2016-12-15T04:49:42.045Z,0
2016-12-15T04:50:42.066Z,0
2016-12-15T04:51:42.380Z,0
2016-12-15T04:52:42.391Z,0
2016-12-15T04:53:42.728Z,0
2016-12-15T04:54:42.739Z,0
2016-12-15T04:55:43.063Z,0
2016-12-15T04:56:42.442Z,0
2016-12-15T04:57:42.457Z,0
2016-12-15T04:58:42.186Z,0
2016-12-15T04:59:42.496Z,0
2016-12-15T05:00:42.502Z,0
2016-12-15T05:01:42.526Z,0
2016-12-15T05:02:42.846Z,0
2016-12-15T05:03:42.854Z,0
2016-12-15T05:04:42.551Z,0
2016-12-15T05:05:42.571Z,0
2016-12-15T05:06:42.268Z,0
2016-12-15T05:07:42.594Z,0
2016-12-15T05:08:42.926Z,0
2016-12-15T05:09:42.623Z,0
2016-12-15T05:10:42.958Z,0
2016-12-15T05:11:42.649Z,0
2016-12-15T05:12:42.661Z,0
2016-12-15T05:13:43.012Z,0
2016-12-15T05:14:43.007Z,0
2016-12-15T05:15:42.703Z,0
2016-12-15T05:16:43.036Z,0
2016-12-15T05:17:42.731Z,0
2016-12-15T05:18:43.401Z,0
2016-12-15T05:19:43.086Z,0
2016-12-15T05:20:43.089Z,0
2016-12-15T05:21:43.101Z,0
2016-12-15T05:22:43.116Z,0
2016-12-15T05:23:43.449Z,0
2016-12-15T05:24:42.830Z,0
2016-12-15T05:25:42.843Z,0
2016-12-15T05:26:42.545Z,0
2016-12-15T05:27:43.202Z,0
2016-12-15T05:28:43.200Z,0
2016-12-15T05:29:43.219Z,0
2016-12-15T05:30:43.231Z,0
2016-12-15T05:31:42.921Z,0
2016-12-15T05:32:43.255Z,0
2016-12-15T05:33:43.270Z,0
2016-12-15T05:34:42.965Z,0
2016-12-15T05:35:42.983Z,0
2016-12-15T05:36:42.997Z,0
2016-12-15T05:37:43.326Z,0
2016-12-15T05:38:43.019Z,0
2016-12-15T05:39:43.037Z,0
2016-12-15T05:40:43.049Z,0
2016-12-15T05:41:43.059Z,0
2016-12-15T05:42:42.755Z,0
2016-12-15T05:43:42.773Z,0
2016-12-15T05:44:43.103Z,0
2016-12-15T05:45:43.436Z,0
2016-12-15T05:46:42.814Z,0
2016-12-15T05:47:43.460Z,0
2016-12-15T05:48:43.482Z,0
2016-12-15T05:49:43.495Z,0
2016-12-15T05:50:42.866Z,0
2016-12-15T05:51:43.198Z,0
2016-12-15T05:52:43.562Z,0
2016-12-15T05:53:43.857Z,0
2016-12-15T05:54:43.242Z,0
2016-12-15T05:55:43.256Z,0
2016-12-15T05:56:43.272Z,0
2016-12-15T05:57:42.967Z,0
2016-12-15T05:58:43.616Z,0
2016-12-15T05:59:43.342Z,0
2016-12-15T06:00:43.319Z,0
2016-12-15T06:01:43.341Z,0
2016-12-15T06:02:43.669Z,0
2016-12-15T06:03:43.997Z,0
2016-12-15T06:04:43.065Z,0
2016-12-15T06:05:43.079Z,0
2016-12-15T06:06:43.739Z,0
2016-12-15T06:07:43.730Z,0
2016-12-15T06:08:43.432Z,0
2016-12-15T06:09:43.443Z,0
2016-12-15T06:10:43.773Z,0
2016-12-15T06:11:43.786Z,0
2016-12-15T06:12:43.798Z,0
2016-12-15T06:13:44.145Z,0
2016-12-15T06:14:44.148Z,0
2016-12-15T06:15:43.527Z,0
2016-12-15T06:16:44.170Z,0
2016-12-15T06:17:44.184Z,0
2016-12-15T06:18:43.886Z,0
2016-12-15T06:19:43.892Z,0
2016-12-15T06:20:43.280Z,0
2016-12-15T06:21:44.245Z,0
2016-12-15T06:22:43.622Z,0
2016-12-15T06:23:43.648Z,0
2016-12-15T06:24:43.969Z,0
2016-12-15T06:25:43.976Z,0
2016-12-15T06:26:44.307Z,0
2016-12-15T06:27:43.689Z,0
2016-12-15T06:28:44.040Z,0
2016-12-15T06:29:43.714Z,0
2016-12-15T06:30:44.050Z,0
2016-12-15T06:31:44.059Z,0
2016-12-15T06:32:43.755Z,0
2016-12-15T06:33:44.401Z,0
2016-12-15T06:34:44.103Z,0
2016-12-15T06:35:44.119Z,0
2016-12-15T06:36:43.808Z,0
2016-12-15T06:37:44.140Z,0
2016-12-15T06:38:44.152Z,0
2016-12-15T06:39:44.171Z,4
2016-12-15T06:40:43.867Z,4
2016-12-15T06:41:43.881Z,4
2016-12-15T06:42:43.905Z,0
2016-12-15T06:43:44.217Z,0
2016-12-15T06:44:44.233Z,0
2016-12-15T06:45:43.625Z,0
2016-12-15T06:46:44.260Z,4
2016-12-15T06:47:44.283Z,4
2016-12-15T06:48:44.287Z,4
2016-12-15T06:49:44.303Z,4
2016-12-15T06:50:44.635Z,4
2016-12-15T06:51:43.703Z,0
2016-12-15T06:52:44.347Z,4
2016-12-15T06:53:44.053Z,4
2016-12-15T06:54:43.739Z,4
2016-12-15T06:55:44.710Z,8
2016-12-15T06:56:44.715Z,4
2016-12-15T06:57:44.751Z,4
2016-12-15T06:58:44.443Z,8
2016-12-15T06:59:43.826Z,8
2016-12-15T07:00:44.137Z,8
2016-12-15T07:01:43.833Z,8
2016-12-15T07:02:44.168Z,8
2016-12-15T07:03:44.491Z,8
2016-12-15T07:04:44.832Z,8
2016-12-15T07:05:44.569Z,12
2016-12-15T07:06:44.536Z,12
2016-12-15T07:07:44.560Z,12
2016-12-15T07:08:44.254Z,12
2016-12-15T07:09:44.893Z,12
2016-12-15T07:10:44.588Z,12
2016-12-15T07:11:44.620Z,16
2016-12-15T07:12:44.643Z,12
2016-12-15T07:13:44.635Z,16
2016-12-15T07:14:44.037Z,12
2016-12-15T07:15:44.028Z,16
2016-12-15T07:16:44.035Z,16
2016-12-15T07:17:44.684Z,16
2016-12-15T07:18:44.382Z,16
2016-12-15T07:19:44.740Z,16
2016-12-15T07:20:44.723Z,16
2016-12-15T07:21:44.741Z,16
2016-12-15T07:22:44.436Z,20
2016-12-15T07:23:45.081Z,20
2016-12-15T07:24:44.152Z,24
2016-12-15T07:25:44.160Z,24
2016-12-15T07:26:44.807Z,24
2016-12-15T07:27:44.821Z,24
2016-12-15T07:28:44.205Z,24
2016-12-15T07:29:44.857Z,24
2016-12-15T07:30:44.861Z,28
2016-12-15T07:31:44.565Z,32
2016-12-15T07:32:44.573Z,28
2016-12-15T07:33:45.253Z,28
2016-12-15T07:34:44.610Z,28
2016-12-15T07:35:59.821Z,32
2016-12-15T07:36:44.630Z,36
2016-12-15T07:37:44.650Z,32
2016-12-15T07:38:45.294Z,36
2016-12-15T07:39:44.986Z,48
2016-12-15T07:40:44.697Z,44
2016-12-15T07:41:45.011Z,44
2016-12-15T07:42:44.712Z,44
2016-12-15T07:43:45.043Z,40
2016-12-15T07:44:44.745Z,44
2016-12-15T07:45:45.073Z,48
2016-12-15T07:46:44.458Z,44
2016-12-15T07:47:45.108Z,44
2016-12-15T07:48:45.431Z,52
2016-12-15T07:49:44.497Z,48
2016-12-15T07:50:44.514Z,52
2016-12-15T07:51:44.523Z,48
2016-12-15T07:52:44.850Z,52
2016-12-15T07:53:44.552Z,56
2016-12-15T07:54:44.886Z,56
2016-12-15T07:55:45.217Z,56
2016-12-15T07:56:44.909Z,68
2016-12-15T07:57:44.961Z,60
2016-12-15T07:58:44.947Z,68
2016-12-15T07:59:44.958Z,72
2016-12-15T08:00:44.650Z,80
2016-12-15T08:01:45.638Z,76
2016-12-15T08:02:45.343Z,72
2016-12-15T08:03:45.328Z,72
2016-12-15T08:04:45.029Z,80
2016-12-15T08:05:45.348Z,96
2016-12-15T08:06:45.054Z,84
2016-12-15T08:07:45.382Z,80
2016-12-15T08:08:45.076Z,84
2016-12-15T08:09:45.099Z,88
2016-12-15T08:10:45.421Z,92
2016-12-15T08:11:44.810Z,92
2016-12-15T08:12:45.450Z,92
2016-12-15T08:13:45.149Z,92
2016-12-15T08:14:45.169Z,124
2016-12-15T08:15:45.494Z,96
2016-12-15T08:16:44.886Z,100
2016-12-15T08:17:45.211Z,108
2016-12-15T08:18:45.539Z,100
2016-12-15T08:19:45.872Z,108
2016-12-15T08:20:45.563Z,104
2016-12-15T08:21:45.896Z,112
2016-12-15T08:22:44.962Z,128
2016-12-15T08:23:45.289Z,108
2016-12-15T08:24:45.305Z,112
2016-12-15T08:25:45.317Z,100
2016-12-15T08:26:45.022Z,104
2016-12-15T08:27:45.701Z,124
2016-12-15T08:28:45.047Z,116
2016-12-15T08:29:45.393Z,124
2016-12-15T08:30:45.704Z,116
2016-12-15T08:31:45.760Z,108
2016-12-15T08:32:45.422Z,120
2016-12-15T08:33:45.756Z,112
2016-12-15T08:34:46.082Z,116
2016-12-15T08:35:46.343Z,112
2016-12-15T08:36:45.785Z,108
2016-12-15T08:37:45.815Z,116
2016-12-15T08:38:45.824Z,124
2016-12-15T08:39:46.148Z,128
2016-12-15T08:40:46.163Z,128
2016-12-15T08:41:45.235Z,120
2016-12-15T08:42:45.561Z,116
2016-12-15T08:43:45.899Z,124
2016-12-15T08:44:46.242Z,124
2016-12-15T08:45:46.244Z,124
2016-12-15T08:46:46.253Z,124
2016-12-15T08:47:45.324Z,120
2016-12-15T08:48:45.367Z,120
2016-12-15T08:49:45.665Z,120
2016-12-15T08:50:45.986Z,120
2016-12-15T08:51:45.698Z,116
2016-12-15T08:52:45.701Z,112
2016-12-15T08:53:46.047Z,112
2016-12-15T08:54:46.039Z,124
2016-12-15T08:55:45.751Z,116
2016-12-15T08:56:45.755Z,116
2016-12-15T08:57:46.111Z,132
2016-12-15T08:58:46.098Z,120
2016-12-15T08:59:46.021Z,124
2016-12-15T09:00:45.811Z,112
2016-12-15T09:01:45.851Z,124
2016-12-15T09:02:46.180Z,140
2016-12-15T09:03:45.855Z,132
2016-12-15T09:04:45.556Z,120
2016-12-15T09:05:46.512Z,132
2016-12-15T09:06:46.530Z,152
2016-12-15T09:07:46.240Z,136
2016-12-15T09:08:46.262Z,140
2016-12-15T09:09:45.630Z,140
2016-12-15T09:10:45.962Z,152
2016-12-15T09:11:45.982Z,140
2016-12-15T09:12:45.667Z,128
2016-12-15T09:13:46.316Z,132
2016-12-15T09:14:46.035Z,128
2016-12-15T09:15:46.046Z,132
2016-12-15T09:16:46.352Z,136
2016-12-15T09:17:46.370Z,132
2016-12-15T09:18:46.384Z,140
2016-12-15T09:19:46.397Z,148
2016-12-15T09:20:46.414Z,148
2016-12-15T09:21:45.802Z,144
2016-12-15T09:22:46.131Z,144
2016-12-15T09:23:46.466Z,160
2016-12-15T09:24:46.791Z,164
2016-12-15T09:25:46.851Z,160
2016-12-15T09:26:46.204Z,168
2016-12-15T09:27:46.515Z,172
2016-12-15T09:28:46.213Z,164
2016-12-15T09:29:46.223Z,164
2016-12-15T09:30:46.238Z,160
2016-12-15T09:31:46.257Z,168
2016-12-15T09:32:46.583Z,172
2016-12-15T09:33:46.000Z,180
2016-12-15T09:34:46.307Z,184
2016-12-15T09:35:46.326Z,176
2016-12-15T09:36:46.013Z,176
2016-12-15T09:37:46.660Z,200
2016-12-15T09:38:46.670Z,208
2016-12-15T09:39:46.698Z,176
2016-12-15T09:40:46.395Z,188
2016-12-15T09:41:47.040Z,200
2016-12-15T09:42:46.737Z,192
2016-12-15T09:43:46.761Z,200
2016-12-15T09:44:46.754Z,204
2016-12-15T09:45:46.454Z,216
2016-12-15T09:46:46.151Z,204
2016-12-15T09:47:47.112Z,196
2016-12-15T09:48:46.179Z,200
2016-12-15T09:49:46.826Z,200
2016-12-15T09:50:46.844Z,188
2016-12-15T09:51:46.539Z,232
2016-12-15T09:52:46.558Z,188
2016-12-15T09:53:47.203Z,208
2016-12-15T09:54:46.606Z,188
2016-12-15T09:55:46.933Z,176
2016-12-15T09:56:47.238Z,188
2016-12-15T09:57:46.632Z,172
2016-12-15T09:58:46.961Z,172
2016-12-15T09:59:46.713Z,176
2016-12-15T10:00:46.669Z,164
2016-12-15T10:01:46.686Z,184
2016-12-15T10:02:46.384Z,204
2016-12-15T10:03:47.058Z,184
2016-12-15T10:04:46.727Z,188
2016-12-15T10:05:46.872Z,196
2016-12-15T10:06:47.389Z,192
2016-12-15T10:07:47.088Z,196
2016-12-15T10:08:47.117Z,204
2016-12-15T10:09:46.487Z,204
2016-12-15T10:10:47.129Z,196
2016-12-15T10:11:46.834Z,208
2016-12-15T10:12:47.179Z,212
2016-12-15T10:13:46.555Z,204
2016-12-15T10:14:47.189Z,208
2016-12-15T10:15:47.203Z,196
2016-12-15T10:16:47.535Z,208
2016-12-15T10:17:46.599Z,212
2016-12-15T10:18:47.244Z,204
2016-12-15T10:19:46.629Z,212
2016-12-15T10:20:47.294Z,220
2016-12-15T10:21:47.290Z,236
2016-12-15T10:22:47.303Z,224
2016-12-15T10:23:46.686Z,244
2016-12-15T10:24:47.348Z,220
2016-12-15T10:25:47.350Z,224
2016-12-15T10:26:47.677Z,224
2016-12-15T10:27:47.721Z,248
2016-12-15T10:28:46.781Z,232
2016-12-15T10:29:47.411Z,204
2016-12-15T10:30:46.790Z,224
2016-12-15T10:31:47.448Z,232
2016-12-15T10:32:47.460Z,248
2016-12-15T10:33:47.779Z,244
2016-12-15T10:34:47.484Z,260
2016-12-15T10:35:47.496Z,248
2016-12-15T10:36:47.195Z,228
2016-12-15T10:37:47.845Z,228
2016-12-15T10:38:47.219Z,232
2016-12-15T10:39:47.258Z,232
2016-12-15T10:40:46.934Z,216
2016-12-15T10:41:47.591Z,204
2016-12-15T10:42:47.597Z,196
2016-12-15T10:43:47.616Z,188
2016-12-15T10:44:47.626Z,192
2016-12-15T10:45:47.638Z,220
2016-12-15T10:46:47.651Z,220
2016-12-15T10:47:47.403Z,252
2016-12-15T10:48:47.055Z,276
2016-12-15T10:49:47.382Z,284
2016-12-15T10:50:47.717Z,272
2016-12-15T10:51:47.414Z,284
2016-12-15T10:52:47.431Z,316
2016-12-15T10:53:47.776Z,284
2016-12-15T10:54:47.781Z,284
2016-12-15T10:55:47.159Z,292
2016-12-15T10:56:47.496Z,288
2016-12-15T10:57:48.133Z,280
2016-12-15T10:58:48.165Z,276
2016-12-15T10:59:48.163Z,280
2016-12-15T11:00:47.575Z,280
2016-12-15T11:01:47.563Z,288
2016-12-15T11:02:47.577Z,300
2016-12-15T11:03:48.229Z,272
2016-12-15T11:04:47.923Z,256
2016-12-15T11:05:47.308Z,256
2016-12-15T11:06:48.296Z,252
2016-12-15T11:07:47.657Z,232
2016-12-15T11:08:47.982Z,224
2016-12-15T11:09:48.311Z,224
2016-12-15T11:10:48.013Z,248
2016-12-15T11:11:48.064Z,252
2016-12-15T11:12:47.422Z,240
2016-12-15T11:13:47.741Z,232
2016-12-15T11:14:48.388Z,232
2016-12-15T11:15:48.123Z,228
2016-12-15T11:16:47.471Z,236
2016-12-15T11:17:48.117Z,236
2016-12-15T11:18:48.132Z,244
2016-12-15T11:19:47.834Z,256
2016-12-15T11:20:48.160Z,248
2016-12-15T11:21:48.178Z,228
2016-12-15T11:22:47.882Z,244
2016-12-15T11:23:47.575Z,260
2016-12-15T11:24:48.220Z,248
2016-12-15T11:25:47.927Z,244
2016-12-15T11:26:48.566Z,236
2016-12-15T11:27:47.959Z,256
2016-12-15T11:28:48.287Z,268
2016-12-15T11:29:47.990Z,260
2016-12-15T11:30:48.005Z,260
2016-12-15T11:31:48.328Z,256
2016-12-15T11:32:48.034Z,240
2016-12-15T11:33:48.358Z,240
2016-12-15T11:34:48.374Z,244
2016-12-15T11:35:48.070Z,240
2016-12-15T11:36:48.729Z,228
2016-12-15T11:37:48.733Z,224
2016-12-15T11:38:48.112Z,232
2016-12-15T11:39:48.128Z,232
2016-12-15T11:40:48.177Z,228
2016-12-15T11:41:47.844Z,216
2016-12-15T11:42:48.495Z,216
2016-12-15T11:43:48.512Z,212
2016-12-15T11:44:48.208Z,204
2016-12-15T11:45:48.531Z,212
2016-12-15T11:46:47.918Z,212
2016-12-15T11:47:48.273Z,200
2016-12-15T11:48:48.581Z,192
2016-12-15T11:49:48.598Z,184
2016-12-15T11:50:47.989Z,188
2016-12-15T11:51:47.994Z,184
2016-12-15T11:52:48.353Z,168
2016-12-15T11:53:48.344Z,164
2016-12-15T11:54:48.680Z,172
2016-12-15T11:55:48.401Z,176
2016-12-15T11:56:48.705Z,176
2016-12-15T11:57:48.717Z,168
2016-12-15T11:58:48.443Z,160
2016-12-15T11:59:48.744Z,160
2016-12-15T12:00:48.452Z,160
2016-12-15T12:01:48.783Z,160
2016-12-15T12:02:48.815Z,172
2016-12-15T12:03:48.177Z,184
2016-12-15T12:04:48.823Z,176
2016-12-15T12:05:48.269Z,164
2016-12-15T12:06:48.538Z,160
2016-12-15T12:07:48.236Z,156
2016-12-15T12:08:48.251Z,164
2016-12-15T12:09:48.605Z,188
2016-12-15T12:10:48.940Z,216
2016-12-15T12:11:48.929Z,200
2016-12-15T12:12:48.942Z,192
2016-12-15T12:13:48.327Z,188
2016-12-15T12:14:48.658Z,176
2016-12-15T12:15:48.674Z,188
2016-12-15T12:16:49.004Z,184
2016-12-15T12:17:49.021Z,188
2016-12-15T12:18:48.400Z,188
2016-12-15T12:19:49.050Z,188
2016-12-15T12:20:49.074Z,172
2016-12-15T12:21:49.078Z,192
2016-12-15T12:22:48.779Z,188
2016-12-15T12:23:49.110Z,176
2016-12-15T12:24:49.443Z,188
2016-12-15T12:25:49.466Z,180
2016-12-15T12:26:49.162Z,180
2016-12-15T12:27:48.541Z,176
2016-12-15T12:28:48.584Z,176
2016-12-15T12:29:48.891Z,180
2016-12-15T12:30:48.912Z,172
2016-12-15T12:31:49.237Z,168
2016-12-15T12:32:48.935Z,172
2016-12-15T12:33:48.949Z,168
2016-12-15T12:34:49.280Z,164
2016-12-15T12:35:49.293Z,168
2016-12-15T12:36:49.001Z,172
2016-12-15T12:37:49.329Z,164
2016-12-15T12:38:49.351Z,168
2016-12-15T12:39:49.045Z,152
2016-12-15T12:40:48.743Z,152
2016-12-15T12:41:49.393Z,156
2016-12-15T12:42:49.089Z,148
2016-12-15T12:43:48.790Z,144
2016-12-15T12:44:49.122Z,140
2016-12-15T12:45:49.140Z,136
2016-12-15T12:46:49.153Z,144
2016-12-15T12:47:49.482Z,136
2016-12-15T12:48:49.494Z,140
2016-12-15T12:49:49.221Z,136
2016-12-15T12:50:49.211Z,132
2016-12-15T12:51:49.855Z,136
2016-12-15T12:52:49.560Z,128
2016-12-15T12:53:49.258Z,132
2016-12-15T12:54:49.908Z,132
2016-12-15T12:55:49.601Z,128
2016-12-15T12:56:49.940Z,124
2016-12-15T12:57:49.319Z,128
2016-12-15T12:58:49.649Z,120
2016-12-15T12:59:49.035Z,128
2016-12-15T13:00:49.367Z,124
2016-12-15T13:01:49.695Z,144
2016-12-15T13:02:49.396Z,140
2016-12-15T13:03:50.056Z,128
2016-12-15T13:04:49.742Z,136
2016-12-15T13:05:49.458Z,148
2016-12-15T13:06:49.469Z,148
2016-12-15T13:07:49.172Z,156
2016-12-15T13:08:49.184Z,152
2016-12-15T13:09:49.194Z,144
2016-12-15T13:10:49.519Z,144
2016-12-15T13:11:49.855Z,144
2016-12-15T13:12:49.863Z,152
2016-12-15T13:13:49.565Z,160
2016-12-15T13:14:49.263Z,160
2016-12-15T13:15:49.595Z,172
2016-12-15T13:16:49.921Z,184
2016-12-15T13:17:49.628Z,188
2016-12-15T13:18:49.649Z,180
2016-12-15T13:19:50.283Z,164
2016-12-15T13:20:49.986Z,152
2016-12-15T13:21:50.026Z,148
2016-12-15T13:22:50.046Z,152
2016-12-15T13:23:49.419Z,152
2016-12-15T13:24:50.052Z,140
2016-12-15T13:25:49.753Z,136
2016-12-15T13:26:50.101Z,128
2016-12-15T13:27:49.777Z,132
2016-12-15T13:28:49.805Z,120
2016-12-15T13:29:50.122Z,120
2016-12-15T13:30:50.146Z,120
2016-12-15T13:31:49.839Z,116
2016-12-15T13:32:50.174Z,120
2016-12-15T13:33:50.507Z,120
2016-12-15T13:34:49.888Z,116
2016-12-15T13:35:49.910Z,116
2016-12-15T13:36:49.607Z,112
2016-12-15T13:37:49.949Z,112
2016-12-15T13:38:50.581Z,116
2016-12-15T13:39:50.604Z,104
2016-12-15T13:40:50.631Z,116
2016-12-15T13:41:50.008Z,140
2016-12-15T13:42:50.324Z,144
2016-12-15T13:43:50.342Z,136
2016-12-15T13:44:49.745Z,120
2016-12-15T13:45:50.371Z,112
2016-12-15T13:46:50.070Z,108
2016-12-15T13:47:50.401Z,108
2016-12-15T13:48:50.097Z,104
2016-12-15T13:49:50.118Z,104
2016-12-15T13:50:50.453Z,108
2016-12-15T13:51:50.148Z,100
2016-12-15T13:52:49.847Z,96
2016-12-15T13:53:49.864Z,92
2016-12-15T13:54:50.508Z,92
2016-12-15T13:55:50.243Z,88
2016-12-15T13:56:50.862Z,88
2016-12-15T13:57:50.562Z,88
2016-12-15T13:58:50.253Z,92
2016-12-15T13:59:50.584Z,96
2016-12-15T14:00:50.291Z,84
2016-12-15T14:01:50.303Z,72
2016-12-15T14:02:50.318Z,72
2016-12-15T14:03:50.647Z,68
2016-12-15T14:04:50.352Z,68
2016-12-15T14:05:50.363Z,64
2016-12-15T14:06:51.011Z,60
2016-12-15T14:07:50.393Z,64
2016-12-15T14:08:50.409Z,60
2016-12-15T14:09:50.455Z,60
2016-12-15T14:10:50.756Z,60
2016-12-15T14:11:50.775Z,60
2016-12-15T14:12:50.788Z,56
2016-12-15T14:13:50.810Z,60
2016-12-15T14:14:50.501Z,56
2016-12-15T14:15:50.515Z,60
2016-12-15T14:16:50.885Z,60
2016-12-15T14:17:50.864Z,60
2016-12-15T14:18:50.875Z,60
2016-12-15T14:19:50.265Z,56